sensor_id;sensor_type;location;lat;lon;timestamp;P1;durP1;ratioP1;P2;durP2;ratioP2
54263;SDS011;40178;53.042;6.406;2022-10-26T00:00:41;17.77;;;9.02;;
54263;SDS011;40178;53.042;6.406;2022-10-26T00:03:07;18.13;;;9.65;;
54263;SDS011;40178;53.042;6.406;2022-10-26T00:05:33;20.30;;;9.95;;
54263;SDS011;40178;53.042;6.406;2022-10-26T00:07:59;23.15;;;10.05;;
54263;SDS011;40178;53.042;6.406;2022-10-26T00:10:25;17.75;;;9.50;;
54263;SDS011;40178;53.042;6.406;2022-10-26T00:12:51;23.45;;;10.07;;
54263;SDS011;40178;53.042;6.406;2022-10-26T00:15:17;19.23;;;10.07;;
54263;SDS011;40178;53.042;6.406;2022-10-26T00:17:43;20.98;;;10.50;;
54263;SDS011;40178;53.042;6.406;2022-10-26T00:20:10;21.70;;;9.48;;
54263;SDS011;40178;53.042;6.406;2022-10-26T00:22:36;19.55;;;10.32;;
54263;SDS011;40178;53.042;6.406;2022-10-26T00:25:02;21.48;;;10.25;;
54263;SDS011;40178;53.042;6.406;2022-10-26T00:27:27;19.15;;;10.65;;
54263;SDS011;40178;53.042;6.406;2022-10-26T00:29:53;23.38;;;11.40;;
54263;SDS011;40178;53.042;6.406;2022-10-26T00:32:18;22.60;;;11.38;;
54263;SDS011;40178;53.042;6.406;2022-10-26T00:34:44;21.50;;;11.45;;
54263;SDS011;40178;53.042;6.406;2022-10-26T00:37:10;20.42;;;11.55;;
54263;SDS011;40178;53.042;6.406;2022-10-26T00:39:35;23.83;;;11.88;;
54263;SDS011;40178;53.042;6.406;2022-10-26T00:42:01;20.45;;;12.10;;
54263;SDS011;40178;53.042;6.406;2022-10-26T00:47:11;20.05;;;11.68;;
54263;SDS011;40178;53.042;6.406;2022-10-26T00:49:44;21.25;;;12.13;;
54263;SDS011;40178;53.042;6.406;2022-10-26T00:52:13;22.65;;;12.45;;
54263;SDS011;40178;53.042;6.406;2022-10-26T00:54:41;24.55;;;13.25;;
54263;SDS011;40178;53.042;6.406;2022-10-26T00:57:07;23.95;;;12.57;;
54263;SDS011;40178;53.042;6.406;2022-10-26T00:59:33;22.38;;;12.88;;
54263;SDS011;40178;53.042;6.406;2022-10-26T01:01:59;21.88;;;12.75;;
54263;SDS011;40178;53.042;6.406;2022-10-26T01:04:24;24.55;;;12.73;;
54263;SDS011;40178;53.042;6.406;2022-10-26T01:06:50;21.67;;;12.43;;
54263;SDS011;40178;53.042;6.406;2022-10-26T01:09:16;21.65;;;13.90;;
54263;SDS011;40178;53.042;6.406;2022-10-26T01:11:44;25.65;;;13.65;;
54263;SDS011;40178;53.042;6.406;2022-10-26T01:14:10;26.70;;;13.73;;
54263;SDS011;40178;53.042;6.406;2022-10-26T01:22:25;24.92;;;13.65;;
54263;SDS011;40178;53.042;6.406;2022-10-26T01:27:52;24.88;;;13.68;;
54263;SDS011;40178;53.042;6.406;2022-10-26T01:30:22;24.90;;;15.23;;
54263;SDS011;40178;53.042;6.406;2022-10-26T01:33:14;26.25;;;15.50;;
54263;SDS011;40178;53.042;6.406;2022-10-26T01:38:39;24.33;;;14.50;;
54263;SDS011;40178;53.042;6.406;2022-10-26T01:43:44;23.92;;;13.73;;
54263;SDS011;40178;53.042;6.406;2022-10-26T01:46:16;28.08;;;14.32;;
54263;SDS011;40178;53.042;6.406;2022-10-26T01:48:43;28.17;;;15.18;;
54263;SDS011;40178;53.042;6.406;2022-10-26T01:51:10;26.10;;;14.52;;
54263;SDS011;40178;53.042;6.406;2022-10-26T01:53:41;20.98;;;12.35;;
54263;SDS011;40178;53.042;6.406;2022-10-26T01:56:11;27.38;;;13.75;;
54263;SDS011;40178;53.042;6.406;2022-10-26T02:07:17;29.67;;;13.90;;
54263;SDS011;40178;53.042;6.406;2022-10-26T02:12:27;23.42;;;14.13;;
54263;SDS011;40178;53.042;6.406;2022-10-26T02:15:07;25.40;;;13.70;;
54263;SDS011;40178;53.042;6.406;2022-10-26T02:17:58;22.77;;;12.38;;
54263;SDS011;40178;53.042;6.406;2022-10-26T02:20:32;20.48;;;12.95;;
54263;SDS011;40178;53.042;6.406;2022-10-26T02:23:05;21.38;;;12.82;;
54263;SDS011;40178;53.042;6.406;2022-10-26T02:25:34;22.55;;;13.25;;
54263;SDS011;40178;53.042;6.406;2022-10-26T02:28:04;23.33;;;12.27;;
54263;SDS011;40178;53.042;6.406;2022-10-26T02:30:34;23.17;;;12.55;;
54263;SDS011;40178;53.042;6.406;2022-10-26T02:33:01;22.25;;;13.10;;
54263;SDS011;40178;53.042;6.406;2022-10-26T02:35:30;22.83;;;13.02;;
54263;SDS011;40178;53.042;6.406;2022-10-26T02:37:59;25.55;;;13.98;;
54263;SDS011;40178;53.042;6.406;2022-10-26T02:40:27;26.63;;;14.80;;
54263;SDS011;40178;53.042;6.406;2022-10-26T02:42:54;24.45;;;14.02;;
54263;SDS011;40178;53.042;6.406;2022-10-26T02:45:24;23.50;;;13.73;;
54263;SDS011;40178;53.042;6.406;2022-10-26T02:47:53;23.17;;;14.20;;
54263;SDS011;40178;53.042;6.406;2022-10-26T02:50:20;24.83;;;12.73;;
54263;SDS011;40178;53.042;6.406;2022-10-26T02:55:39;28.17;;;14.00;;
54263;SDS011;40178;53.042;6.406;2022-10-26T02:58:12;20.38;;;12.88;;
54263;SDS011;40178;53.042;6.406;2022-10-26T03:00:43;25.58;;;13.30;;
54263;SDS011;40178;53.042;6.406;2022-10-26T03:03:09;24.40;;;14.02;;
54263;SDS011;40178;53.042;6.406;2022-10-26T03:05:39;27.67;;;14.30;;
54263;SDS011;40178;53.042;6.406;2022-10-26T03:08:06;25.25;;;13.90;;
54263;SDS011;40178;53.042;6.406;2022-10-26T03:10:32;23.48;;;14.20;;
54263;SDS011;40178;53.042;6.406;2022-10-26T03:13:00;23.15;;;13.93;;
54263;SDS011;40178;53.042;6.406;2022-10-26T03:15:26;25.00;;;13.85;;
54263;SDS011;40178;53.042;6.406;2022-10-26T03:17:51;24.60;;;13.60;;
54263;SDS011;40178;53.042;6.406;2022-10-26T03:20:17;23.20;;;13.65;;
54263;SDS011;40178;53.042;6.406;2022-10-26T03:22:42;26.40;;;13.93;;
54263;SDS011;40178;53.042;6.406;2022-10-26T03:25:08;25.35;;;14.48;;
54263;SDS011;40178;53.042;6.406;2022-10-26T03:27:33;24.08;;;13.75;;
54263;SDS011;40178;53.042;6.406;2022-10-26T03:29:59;28.15;;;15.15;;
54263;SDS011;40178;53.042;6.406;2022-10-26T03:32:25;25.25;;;14.02;;
54263;SDS011;40178;53.042;6.406;2022-10-26T03:34:50;25.58;;;14.38;;
54263;SDS011;40178;53.042;6.406;2022-10-26T03:37:16;25.13;;;15.13;;
54263;SDS011;40178;53.042;6.406;2022-10-26T03:39:41;28.40;;;15.32;;
54263;SDS011;40178;53.042;6.406;2022-10-26T03:42:07;26.38;;;14.52;;
54263;SDS011;40178;53.042;6.406;2022-10-26T03:44:33;24.70;;;14.88;;
54263;SDS011;40178;53.042;6.406;2022-10-26T03:46:58;22.75;;;13.75;;
54263;SDS011;40178;53.042;6.406;2022-10-26T03:49:24;27.45;;;15.50;;
54263;SDS011;40178;53.042;6.406;2022-10-26T03:51:49;27.60;;;14.52;;
54263;SDS011;40178;53.042;6.406;2022-10-26T03:54:15;32.47;;;15.30;;
54263;SDS011;40178;53.042;6.406;2022-10-26T03:56:43;26.00;;;14.88;;
54263;SDS011;40178;53.042;6.406;2022-10-26T03:59:08;31.17;;;15.35;;
54263;SDS011;40178;53.042;6.406;2022-10-26T04:01:34;26.98;;;15.45;;
54263;SDS011;40178;53.042;6.406;2022-10-26T04:04:04;26.60;;;15.48;;
54263;SDS011;40178;53.042;6.406;2022-10-26T04:06:29;26.10;;;14.90;;
54263;SDS011;40178;53.042;6.406;2022-10-26T04:08:55;29.35;;;15.38;;
54263;SDS011;40178;53.042;6.406;2022-10-26T04:11:27;25.52;;;15.18;;
54263;SDS011;40178;53.042;6.406;2022-10-26T04:13:53;31.33;;;16.58;;
54263;SDS011;40178;53.042;6.406;2022-10-26T04:16:19;30.52;;;15.63;;
54263;SDS011;40178;53.042;6.406;2022-10-26T04:18:46;32.15;;;16.50;;
54263;SDS011;40178;53.042;6.406;2022-10-26T04:21:11;29.00;;;15.95;;
54263;SDS011;40178;53.042;6.406;2022-10-26T04:23:37;32.67;;;17.17;;
54263;SDS011;40178;53.042;6.406;2022-10-26T04:26:04;31.25;;;16.80;;
54263;SDS011;40178;53.042;6.406;2022-10-26T04:28:30;31.38;;;16.48;;
54263;SDS011;40178;53.042;6.406;2022-10-26T04:30:55;30.38;;;16.92;;
54263;SDS011;40178;53.042;6.406;2022-10-26T04:33:21;34.63;;;17.20;;
54263;SDS011;40178;53.042;6.406;2022-10-26T04:35:47;30.45;;;16.17;;
54263;SDS011;40178;53.042;6.406;2022-10-26T04:38:15;27.83;;;17.65;;
54263;SDS011;40178;53.042;6.406;2022-10-26T04:40:41;30.17;;;17.50;;
54263;SDS011;40178;53.042;6.406;2022-10-26T04:43:08;31.55;;;17.23;;
54263;SDS011;40178;53.042;6.406;2022-10-26T04:45:34;32.20;;;17.85;;
54263;SDS011;40178;53.042;6.406;2022-10-26T04:48:03;29.08;;;16.60;;
54263;SDS011;40178;53.042;6.406;2022-10-26T04:50:32;32.00;;;16.38;;
54263;SDS011;40178;53.042;6.406;2022-10-26T04:53:08;30.33;;;17.80;;
54263;SDS011;40178;53.042;6.406;2022-10-26T04:55:34;33.45;;;17.75;;
54263;SDS011;40178;53.042;6.406;2022-10-26T04:58:23;31.00;;;17.58;;
54263;SDS011;40178;53.042;6.406;2022-10-26T05:00:49;30.65;;;18.15;;
54263;SDS011;40178;53.042;6.406;2022-10-26T05:03:16;31.55;;;17.80;;
54263;SDS011;40178;53.042;6.406;2022-10-26T05:05:45;29.27;;;17.63;;
54263;SDS011;40178;53.042;6.406;2022-10-26T05:08:14;31.17;;;17.25;;
54263;SDS011;40178;53.042;6.406;2022-10-26T05:10:40;31.40;;;17.05;;
54263;SDS011;40178;53.042;6.406;2022-10-26T05:13:07;32.17;;;17.52;;
54263;SDS011;40178;53.042;6.406;2022-10-26T05:15:33;29.10;;;17.95;;
54263;SDS011;40178;53.042;6.406;2022-10-26T05:18:00;29.40;;;16.55;;
54263;SDS011;40178;53.042;6.406;2022-10-26T05:20:28;26.98;;;16.08;;
54263;SDS011;40178;53.042;6.406;2022-10-26T05:22:59;29.27;;;16.92;;
54263;SDS011;40178;53.042;6.406;2022-10-26T05:25:28;33.10;;;16.83;;
54263;SDS011;40178;53.042;6.406;2022-10-26T05:27:56;29.33;;;15.43;;
54263;SDS011;40178;53.042;6.406;2022-10-26T05:30:26;27.95;;;16.60;;
54263;SDS011;40178;53.042;6.406;2022-10-26T05:32:53;29.65;;;15.57;;
54263;SDS011;40178;53.042;6.406;2022-10-26T05:35:19;24.50;;;15.18;;
54263;SDS011;40178;53.042;6.406;2022-10-26T05:37:45;26.88;;;14.40;;
54263;SDS011;40178;53.042;6.406;2022-10-26T05:40:14;26.67;;;15.30;;
54263;SDS011;40178;53.042;6.406;2022-10-26T05:42:41;26.10;;;15.30;;
54263;SDS011;40178;53.042;6.406;2022-10-26T05:45:08;26.02;;;14.23;;
54263;SDS011;40178;53.042;6.406;2022-10-26T05:47:41;25.98;;;15.00;;
54263;SDS011;40178;53.042;6.406;2022-10-26T05:50:10;24.58;;;13.90;;
54263;SDS011;40178;53.042;6.406;2022-10-26T05:52:39;26.52;;;14.10;;
54263;SDS011;40178;53.042;6.406;2022-10-26T05:55:08;26.20;;;13.05;;
54263;SDS011;40178;53.042;6.406;2022-10-26T05:57:35;25.40;;;13.20;;
54263;SDS011;40178;53.042;6.406;2022-10-26T06:00:02;23.77;;;14.20;;
54263;SDS011;40178;53.042;6.406;2022-10-26T06:02:33;24.58;;;13.90;;
54263;SDS011;40178;53.042;6.406;2022-10-26T06:05:06;26.27;;;13.45;;
54263;SDS011;40178;53.042;6.406;2022-10-26T06:07:35;24.88;;;12.82;;
54263;SDS011;40178;53.042;6.406;2022-10-26T06:10:01;24.73;;;12.98;;
54263;SDS011;40178;53.042;6.406;2022-10-26T06:12:27;21.42;;;13.15;;
54263;SDS011;40178;53.042;6.406;2022-10-26T06:14:53;19.58;;;11.80;;
54263;SDS011;40178;53.042;6.406;2022-10-26T06:23:14;22.70;;;13.18;;
54263;SDS011;40178;53.042;6.406;2022-10-26T06:28:42;20.90;;;11.73;;
54263;SDS011;40178;53.042;6.406;2022-10-26T06:31:23;18.85;;;11.35;;
54263;SDS011;40178;53.042;6.406;2022-10-26T06:33:49;20.90;;;11.70;;
54263;SDS011;40178;53.042;6.406;2022-10-26T06:36:20;22.23;;;11.20;;
54263;SDS011;40178;53.042;6.406;2022-10-26T06:38:48;19.08;;;10.57;;
54263;SDS011;40178;53.042;6.406;2022-10-26T06:41:21;18.95;;;10.68;;
54263;SDS011;40178;53.042;6.406;2022-10-26T06:43:47;21.92;;;10.98;;
54263;SDS011;40178;53.042;6.406;2022-10-26T06:46:35;22.33;;;11.20;;
54263;SDS011;40178;53.042;6.406;2022-10-26T06:49:01;19.50;;;11.13;;
54263;SDS011;40178;53.042;6.406;2022-10-26T06:51:40;22.17;;;11.82;;
54263;SDS011;40178;53.042;6.406;2022-10-26T06:54:18;19.83;;;11.05;;
54263;SDS011;40178;53.042;6.406;2022-10-26T06:56:45;19.52;;;9.70;;
54263;SDS011;40178;53.042;6.406;2022-10-26T06:59:13;20.40;;;10.63;;
54263;SDS011;40178;53.042;6.406;2022-10-26T07:01:49;28.40;;;10.85;;
54263;SDS011;40178;53.042;6.406;2022-10-26T07:04:14;18.27;;;10.15;;
54263;SDS011;40178;53.042;6.406;2022-10-26T07:06:40;20.38;;;9.68;;
54263;SDS011;40178;53.042;6.406;2022-10-26T07:09:06;21.30;;;10.63;;
54263;SDS011;40178;53.042;6.406;2022-10-26T07:11:31;18.20;;;9.60;;
54263;SDS011;40178;53.042;6.406;2022-10-26T07:13:57;15.32;;;9.48;;
54263;SDS011;40178;53.042;6.406;2022-10-26T07:16:22;16.88;;;8.32;;
54263;SDS011;40178;53.042;6.406;2022-10-26T07:18:48;16.75;;;9.77;;
54263;SDS011;40178;53.042;6.406;2022-10-26T07:21:14;16.70;;;9.60;;
54263;SDS011;40178;53.042;6.406;2022-10-26T07:23:39;18.40;;;9.35;;
54263;SDS011;40178;53.042;6.406;2022-10-26T07:26:05;16.85;;;8.93;;
54263;SDS011;40178;53.042;6.406;2022-10-26T07:28:30;17.35;;;9.20;;
54263;SDS011;40178;53.042;6.406;2022-10-26T07:30:57;14.20;;;7.78;;
54263;SDS011;40178;53.042;6.406;2022-10-26T07:33:22;17.30;;;8.82;;
54263;SDS011;40178;53.042;6.406;2022-10-26T07:35:48;14.75;;;8.38;;
54263;SDS011;40178;53.042;6.406;2022-10-26T07:38:13;16.23;;;8.27;;
54263;SDS011;40178;53.042;6.406;2022-10-26T07:40:39;13.23;;;7.57;;
54263;SDS011;40178;53.042;6.406;2022-10-26T07:43:05;15.30;;;8.23;;
54263;SDS011;40178;53.042;6.406;2022-10-26T07:45:30;15.68;;;7.80;;
54263;SDS011;40178;53.042;6.406;2022-10-26T07:47:57;13.60;;;7.25;;
54263;SDS011;40178;53.042;6.406;2022-10-26T07:50:23;15.23;;;7.85;;
54263;SDS011;40178;53.042;6.406;2022-10-26T07:52:49;11.63;;;7.32;;
54263;SDS011;40178;53.042;6.406;2022-10-26T07:55:14;14.15;;;7.43;;
54263;SDS011;40178;53.042;6.406;2022-10-26T07:57:40;14.27;;;7.28;;
54263;SDS011;40178;53.042;6.406;2022-10-26T08:00:06;12.07;;;6.78;;
54263;SDS011;40178;53.042;6.406;2022-10-26T08:02:33;11.35;;;6.68;;
54263;SDS011;40178;53.042;6.406;2022-10-26T08:04:59;14.23;;;6.63;;
54263;SDS011;40178;53.042;6.406;2022-10-26T08:07:25;13.90;;;7.43;;
54263;SDS011;40178;53.042;6.406;2022-10-26T08:09:50;11.75;;;6.20;;
54263;SDS011;40178;53.042;6.406;2022-10-26T08:12:16;12.73;;;6.97;;
54263;SDS011;40178;53.042;6.406;2022-10-26T08:14:43;14.32;;;6.88;;
54263;SDS011;40178;53.042;6.406;2022-10-26T08:17:09;13.02;;;6.85;;
54263;SDS011;40178;53.042;6.406;2022-10-26T08:19:34;11.77;;;6.63;;
54263;SDS011;40178;53.042;6.406;2022-10-26T08:22:00;12.02;;;6.15;;
54263;SDS011;40178;53.042;6.406;2022-10-26T08:24:25;11.43;;;6.28;;
54263;SDS011;40178;53.042;6.406;2022-10-26T08:26:51;11.90;;;6.43;;
54263;SDS011;40178;53.042;6.406;2022-10-26T08:29:17;10.27;;;5.88;;
54263;SDS011;40178;53.042;6.406;2022-10-26T08:31:42;13.20;;;6.07;;
54263;SDS011;40178;53.042;6.406;2022-10-26T08:34:08;9.75;;;5.68;;
54263;SDS011;40178;53.042;6.406;2022-10-26T08:36:34;12.48;;;6.20;;
54263;SDS011;40178;53.042;6.406;2022-10-26T08:38:59;11.15;;;6.22;;
54263;SDS011;40178;53.042;6.406;2022-10-26T08:41:32;13.98;;;6.10;;
54263;SDS011;40178;53.042;6.406;2022-10-26T08:46:56;12.95;;;5.68;;
54263;SDS011;40178;53.042;6.406;2022-10-26T08:49:59;11.30;;;5.70;;
54263;SDS011;40178;53.042;6.406;2022-10-26T08:52:41;11.43;;;5.40;;
54263;SDS011;40178;53.042;6.406;2022-10-26T08:55:17;9.52;;;4.95;;
54263;SDS011;40178;53.042;6.406;2022-10-26T08:57:45;11.15;;;5.60;;
54263;SDS011;40178;53.042;6.406;2022-10-26T09:02:48;12.30;;;5.53;;
54263;SDS011;40178;53.042;6.406;2022-10-26T09:05:17;9.20;;;4.90;;
54263;SDS011;40178;53.042;6.406;2022-10-26T09:07:55;12.20;;;5.65;;
54263;SDS011;40178;53.042;6.406;2022-10-26T09:10:37;10.45;;;6.00;;
54263;SDS011;40178;53.042;6.406;2022-10-26T09:13:20;8.88;;;4.90;;
54263;SDS011;40178;53.042;6.406;2022-10-26T09:24:21;10.02;;;4.78;;
54263;SDS011;40178;53.042;6.406;2022-10-26T09:26:57;8.32;;;4.53;;
54263;SDS011;40178;53.042;6.406;2022-10-26T09:29:43;9.52;;;4.82;;
54263;SDS011;40178;53.042;6.406;2022-10-26T09:32:12;9.23;;;4.45;;
54263;SDS011;40178;53.042;6.406;2022-10-26T09:37:18;10.40;;;4.50;;
54263;SDS011;40178;53.042;6.406;2022-10-26T09:39:55;9.70;;;5.05;;
54263;SDS011;40178;53.042;6.406;2022-10-26T09:45:17;11.43;;;5.47;;
54263;SDS011;40178;53.042;6.406;2022-10-26T09:48:13;9.10;;;5.13;;
54263;SDS011;40178;53.042;6.406;2022-10-26T09:50:45;8.88;;;4.80;;
54263;SDS011;40178;53.042;6.406;2022-10-26T09:53:13;8.98;;;4.47;;
54263;SDS011;40178;53.042;6.406;2022-10-26T09:55:40;9.95;;;4.53;;
54263;SDS011;40178;53.042;6.406;2022-10-26T09:58:13;10.73;;;4.50;;
54263;SDS011;40178;53.042;6.406;2022-10-26T10:00:49;8.90;;;4.63;;
54263;SDS011;40178;53.042;6.406;2022-10-26T10:03:19;8.38;;;4.38;;
54263;SDS011;40178;53.042;6.406;2022-10-26T10:05:49;9.45;;;3.75;;
54263;SDS011;40178;53.042;6.406;2022-10-26T10:08:18;8.32;;;3.80;;
54263;SDS011;40178;53.042;6.406;2022-10-26T10:10:55;9.23;;;4.18;;
54263;SDS011;40178;53.042;6.406;2022-10-26T10:13:33;9.38;;;3.83;;
54263;SDS011;40178;53.042;6.406;2022-10-26T10:16:02;8.50;;;4.00;;
54263;SDS011;40178;53.042;6.406;2022-10-26T10:18:31;10.13;;;3.75;;
54263;SDS011;40178;53.042;6.406;2022-10-26T10:20:57;9.38;;;3.42;;
54263;SDS011;40178;53.042;6.406;2022-10-26T10:23:28;7.32;;;3.00;;
54263;SDS011;40178;53.042;6.406;2022-10-26T10:26:10;8.82;;;3.30;;
54263;SDS011;40178;53.042;6.406;2022-10-26T10:28:36;7.93;;;3.28;;
54263;SDS011;40178;53.042;6.406;2022-10-26T10:31:03;9.77;;;3.28;;
54263;SDS011;40178;53.042;6.406;2022-10-26T10:33:34;8.85;;;2.80;;
54263;SDS011;40178;53.042;6.406;2022-10-26T10:36:05;7.30;;;2.72;;
54263;SDS011;40178;53.042;6.406;2022-10-26T10:38:37;7.93;;;2.60;;
54263;SDS011;40178;53.042;6.406;2022-10-26T10:41:13;8.15;;;3.00;;
54263;SDS011;40178;53.042;6.406;2022-10-26T10:46:11;6.25;;;2.65;;
54263;SDS011;40178;53.042;6.406;2022-10-26T10:49:05;6.97;;;2.53;;
54263;SDS011;40178;53.042;6.406;2022-10-26T10:51:41;6.28;;;2.22;;
54263;SDS011;40178;53.042;6.406;2022-10-26T10:54:17;9.70;;;2.55;;
54263;SDS011;40178;53.042;6.406;2022-10-26T10:59:22;7.25;;;2.20;;
54263;SDS011;40178;53.042;6.406;2022-10-26T11:08:02;5.90;;;2.40;;
54263;SDS011;40178;53.042;6.406;2022-10-26T11:10:38;7.60;;;2.33;;
54263;SDS011;40178;53.042;6.406;2022-10-26T11:13:14;10.52;;;2.30;;
54263;SDS011;40178;53.042;6.406;2022-10-26T11:15:45;5.80;;;2.53;;
54263;SDS011;40178;53.042;6.406;2022-10-26T11:18:16;5.78;;;2.10;;
54263;SDS011;40178;53.042;6.406;2022-10-26T11:20:47;7.68;;;2.10;;
54263;SDS011;40178;53.042;6.406;2022-10-26T11:23:22;4.13;;;2.00;;
54263;SDS011;40178;53.042;6.406;2022-10-26T11:25:58;8.75;;;2.30;;
54263;SDS011;40178;53.042;6.406;2022-10-26T11:31:27;5.68;;;2.10;;
54263;SDS011;40178;53.042;6.406;2022-10-26T11:36:27;5.20;;;1.73;;
54263;SDS011;40178;53.042;6.406;2022-10-26T11:38:58;8.02;;;2.10;;
54263;SDS011;40178;53.042;6.406;2022-10-26T11:46:54;7.80;;;2.13;;
54263;SDS011;40178;53.042;6.406;2022-10-26T11:49:31;4.63;;;2.03;;
54263;SDS011;40178;53.042;6.406;2022-10-26T11:54:47;6.10;;;2.50;;
54263;SDS011;40178;53.042;6.406;2022-10-26T11:57:17;6.63;;;2.17;;
54263;SDS011;40178;53.042;6.406;2022-10-26T11:59:55;7.40;;;2.47;;
54263;SDS011;40178;53.042;6.406;2022-10-26T12:02:27;6.88;;;2.90;;
54263;SDS011;40178;53.042;6.406;2022-10-26T12:04:55;5.50;;;2.40;;
54263;SDS011;40178;53.042;6.406;2022-10-26T12:07:32;5.97;;;2.33;;
54263;SDS011;40178;53.042;6.406;2022-10-26T12:10:00;8.25;;;2.65;;
54263;SDS011;40178;53.042;6.406;2022-10-26T12:12:31;6.95;;;2.58;;
54263;SDS011;40178;53.042;6.406;2022-10-26T12:15:33;9.73;;;3.10;;
54263;SDS011;40178;53.042;6.406;2022-10-26T12:18:09;6.47;;;2.60;;
54263;SDS011;40178;53.042;6.406;2022-10-26T12:21:01;7.70;;;2.60;;
54263;SDS011;40178;53.042;6.406;2022-10-26T12:23:38;6.60;;;2.70;;
54263;SDS011;40178;53.042;6.406;2022-10-26T12:28:47;7.65;;;2.78;;
54263;SDS011;40178;53.042;6.406;2022-10-26T12:34:01;6.13;;;2.60;;
54263;SDS011;40178;53.042;6.406;2022-10-26T12:39:31;8.15;;;2.80;;
54263;SDS011;40178;53.042;6.406;2022-10-26T12:41:58;6.50;;;2.45;;
54263;SDS011;40178;53.042;6.406;2022-10-26T12:44:37;7.47;;;2.72;;
54263;SDS011;40178;53.042;6.406;2022-10-26T12:52:25;8.85;;;3.00;;
54263;SDS011;40178;53.042;6.406;2022-10-26T13:00:32;5.82;;;2.70;;
54263;SDS011;40178;53.042;6.406;2022-10-26T13:09:08;7.03;;;3.20;;
54263;SDS011;40178;53.042;6.406;2022-10-26T13:11:54;8.43;;;3.72;;
54263;SDS011;40178;53.042;6.406;2022-10-26T13:14:24;9.93;;;4.60;;
54263;SDS011;40178;53.042;6.406;2022-10-26T13:16:53;10.45;;;5.47;;
54263;SDS011;40178;53.042;6.406;2022-10-26T13:19:26;10.00;;;5.43;;
54263;SDS011;40178;53.042;6.406;2022-10-26T13:21:57;11.82;;;5.80;;
54263;SDS011;40178;53.042;6.406;2022-10-26T13:24:24;9.43;;;5.13;;
54263;SDS011;40178;53.042;6.406;2022-10-26T13:29:30;11.80;;;4.85;;
54263;SDS011;40178;53.042;6.406;2022-10-26T13:31:56;7.72;;;4.90;;
54263;SDS011;40178;53.042;6.406;2022-10-26T13:34:27;10.15;;;4.95;;
54263;SDS011;40178;53.042;6.406;2022-10-26T13:39:47;12.73;;;4.85;;
54263;SDS011;40178;53.042;6.406;2022-10-26T13:42:17;12.68;;;5.47;;
54263;SDS011;40178;53.042;6.406;2022-10-26T13:47:47;9.00;;;4.18;;
54263;SDS011;40178;53.042;6.406;2022-10-26T13:50:22;10.15;;;4.78;;
54263;SDS011;40178;53.042;6.406;2022-10-26T13:52:55;11.63;;;4.45;;
54263;SDS011;40178;53.042;6.406;2022-10-26T13:55:28;12.25;;;4.45;;
54263;SDS011;40178;53.042;6.406;2022-10-26T14:00:29;8.82;;;4.60;;
54263;SDS011;40178;53.042;6.406;2022-10-26T14:02:55;9.55;;;4.82;;
54263;SDS011;40178;53.042;6.406;2022-10-26T14:05:20;8.90;;;4.20;;
54263;SDS011;40178;53.042;6.406;2022-10-26T14:07:53;11.10;;;4.45;;
54263;SDS011;40178;53.042;6.406;2022-10-26T14:10:32;9.50;;;4.55;;
54263;SDS011;40178;53.042;6.406;2022-10-26T14:13:05;10.02;;;4.13;;
54263;SDS011;40178;53.042;6.406;2022-10-26T14:15:32;9.82;;;4.63;;
54263;SDS011;40178;53.042;6.406;2022-10-26T14:18:00;10.35;;;5.13;;
54263;SDS011;40178;53.042;6.406;2022-10-26T14:20:27;9.48;;;4.35;;
54263;SDS011;40178;53.042;6.406;2022-10-26T14:22:55;10.70;;;5.22;;
54263;SDS011;40178;53.042;6.406;2022-10-26T14:25:25;11.50;;;5.45;;
54263;SDS011;40178;53.042;6.406;2022-10-26T14:27:52;10.63;;;5.55;;
54263;SDS011;40178;53.042;6.406;2022-10-26T14:30:29;9.15;;;5.45;;
54263;SDS011;40178;53.042;6.406;2022-10-26T14:32:56;9.02;;;5.70;;
54263;SDS011;40178;53.042;6.406;2022-10-26T14:35:23;11.00;;;6.20;;
54263;SDS011;40178;53.042;6.406;2022-10-26T14:40:22;11.65;;;6.55;;
54263;SDS011;40178;53.042;6.406;2022-10-26T14:42:52;11.50;;;7.00;;
54263;SDS011;40178;53.042;6.406;2022-10-26T14:47:52;11.02;;;6.90;;
54263;SDS011;40178;53.042;6.406;2022-10-26T14:50:19;9.45;;;6.95;;
54263;SDS011;40178;53.042;6.406;2022-10-26T14:52:53;13.57;;;7.85;;
54263;SDS011;40178;53.042;6.406;2022-10-26T14:55:21;16.10;;;8.13;;
54263;SDS011;40178;53.042;6.406;2022-10-26T14:57:50;10.35;;;7.15;;
54263;SDS011;40178;53.042;6.406;2022-10-26T15:00:19;11.93;;;8.25;;
54263;SDS011;40178;53.042;6.406;2022-10-26T15:02:47;13.02;;;8.27;;
54263;SDS011;40178;53.042;6.406;2022-10-26T15:07:54;13.35;;;8.07;;
54263;SDS011;40178;53.042;6.406;2022-10-26T15:13:07;11.77;;;8.30;;
54263;SDS011;40178;53.042;6.406;2022-10-26T15:15:44;11.98;;;8.68;;
54263;SDS011;40178;53.042;6.406;2022-10-26T15:18:17;12.43;;;8.18;;
54263;SDS011;40178;53.042;6.406;2022-10-26T15:20:46;11.40;;;7.70;;
54263;SDS011;40178;53.042;6.406;2022-10-26T15:23:13;11.82;;;7.72;;
54263;SDS011;40178;53.042;6.406;2022-10-26T15:25:40;12.10;;;7.32;;
54263;SDS011;40178;53.042;6.406;2022-10-26T15:31:42;12.45;;;6.70;;
54263;SDS011;40178;53.042;6.406;2022-10-26T15:38:44;11.35;;;6.53;;
54263;SDS011;40178;53.042;6.406;2022-10-26T15:41:14;8.80;;;6.07;;
54263;SDS011;40178;53.042;6.406;2022-10-26T15:43:52;10.30;;;6.43;;
54263;SDS011;40178;53.042;6.406;2022-10-26T15:46:23;9.07;;;5.93;;
54263;SDS011;40178;53.042;6.406;2022-10-26T15:48:53;10.23;;;6.55;;
54263;SDS011;40178;53.042;6.406;2022-10-26T15:57:35;9.93;;;6.15;;
54263;SDS011;40178;53.042;6.406;2022-10-26T16:00:03;9.07;;;5.47;;
54263;SDS011;40178;53.042;6.406;2022-10-26T16:02:30;10.80;;;5.63;;
54263;SDS011;40178;53.042;6.406;2022-10-26T16:04:58;9.57;;;5.53;;
54263;SDS011;40178;53.042;6.406;2022-10-26T16:07:24;11.00;;;5.57;;
54263;SDS011;40178;53.042;6.406;2022-10-26T16:09:50;7.30;;;5.18;;
54263;SDS011;40178;53.042;6.406;2022-10-26T16:12:17;11.63;;;5.82;;
54263;SDS011;40178;53.042;6.406;2022-10-26T16:14:42;9.45;;;5.50;;
54263;SDS011;40178;53.042;6.406;2022-10-26T16:17:08;7.55;;;5.45;;
54263;SDS011;40178;53.042;6.406;2022-10-26T16:19:34;11.23;;;5.88;;
54263;SDS011;40178;53.042;6.406;2022-10-26T16:21:59;10.77;;;6.00;;
54263;SDS011;40178;53.042;6.406;2022-10-26T16:24:26;10.55;;;5.32;;
54263;SDS011;40178;53.042;6.406;2022-10-26T16:26:53;11.18;;;5.82;;
54263;SDS011;40178;53.042;6.406;2022-10-26T16:29:19;10.40;;;5.40;;
54263;SDS011;40178;53.042;6.406;2022-10-26T16:31:45;9.73;;;5.38;;
54263;SDS011;40178;53.042;6.406;2022-10-26T16:34:11;11.52;;;5.18;;
54263;SDS011;40178;53.042;6.406;2022-10-26T16:36:36;11.20;;;5.80;;
54263;SDS011;40178;53.042;6.406;2022-10-26T16:39:03;12.32;;;6.10;;
54263;SDS011;40178;53.042;6.406;2022-10-26T16:41:29;10.70;;;5.50;;
54263;SDS011;40178;53.042;6.406;2022-10-26T16:43:56;9.68;;;6.03;;
54263;SDS011;40178;53.042;6.406;2022-10-26T16:46:22;11.07;;;5.90;;
54263;SDS011;40178;53.042;6.406;2022-10-26T16:48:49;9.95;;;5.78;;
54263;SDS011;40178;53.042;6.406;2022-10-26T16:51:22;10.70;;;5.45;;
54263;SDS011;40178;53.042;6.406;2022-10-26T16:53:51;12.85;;;5.63;;
54263;SDS011;40178;53.042;6.406;2022-10-26T16:56:21;8.68;;;5.32;;
54263;SDS011;40178;53.042;6.406;2022-10-26T16:58:52;10.30;;;5.18;;
54263;SDS011;40178;53.042;6.406;2022-10-26T17:01:18;8.38;;;5.18;;
54263;SDS011;40178;53.042;6.406;2022-10-26T17:03:45;8.40;;;5.25;;
54263;SDS011;40178;53.042;6.406;2022-10-26T17:06:12;9.77;;;4.70;;
54263;SDS011;40178;53.042;6.406;2022-10-26T17:08:38;9.52;;;5.10;;
54263;SDS011;40178;53.042;6.406;2022-10-26T17:11:08;8.35;;;4.63;;